sensor_id;sensor_type;location;lat;lon;timestamp;P1;durP1;ratioP1;P2;durP2;ratioP2
6665;SDS011;3369;49.906;8.598;2023-07-08T00:01:23;5.70;;;5.18;;
6665;SDS011;3369;49.906;8.598;2023-07-08T00:03:49;6.40;;;5.68;;
6665;SDS011;3369;49.906;8.598;2023-07-08T00:06:21;5.85;;;5.25;;
6665;SDS011;3369;49.906;8.598;2023-07-08T00:08:51;7.13;;;5.68;;
6665;SDS011;3369;49.906;8.598;2023-07-08T00:11:16;5.75;;;5.07;;
6665;SDS011;3369;49.906;8.598;2023-07-08T00:13:43;5.78;;;5.07;;
6665;SDS011;3369;49.906;8.598;2023-07-08T00:16:13;7.38;;;5.35;;
6665;SDS011;3369;49.906;8.598;2023-07-08T00:18:40;7.03;;;5.70;;
6665;SDS011;3369;49.906;8.598;2023-07-08T00:21:10;5.78;;;5.18;;
6665;SDS011;3369;49.906;8.598;2023-07-08T00:23:39;6.10;;;5.50;;
6665;SDS011;3369;49.906;8.598;2023-07-08T00:26:10;6.03;;;5.43;;
6665;SDS011;3369;49.906;8.598;2023-07-08T00:28:40;6.25;;;5.50;;
6665;SDS011;3369;49.906;8.598;2023-07-08T00:31:09;6.00;;;5.07;;
6665;SDS011;3369;49.906;8.598;2023-07-08T00:33:35;6.03;;;5.00;;
6665;SDS011;3369;49.906;8.598;2023-07-08T00:36:01;6.00;;;5.45;;
6665;SDS011;3369;49.906;8.598;2023-07-08T00:38:27;7.03;;;6.05;;
6665;SDS011;3369;49.906;8.598;2023-07-08T00:48:53;6.43;;;5.53;;
6665;SDS011;3369;49.906;8.598;2023-07-08T00:51:37;5.35;;;4.85;;
6665;SDS011;3369;49.906;8.598;2023-07-08T00:54:13;6.68;;;4.90;;
6665;SDS011;3369;49.906;8.598;2023-07-08T00:56:42;5.93;;;5.25;;
6665;SDS011;3369;49.906;8.598;2023-07-08T00:59:28;5.70;;;5.10;;
6665;SDS011;3369;49.906;8.598;2023-07-08T01:01:57;5.78;;;5.18;;
6665;SDS011;3369;49.906;8.598;2023-07-08T01:04:30;6.50;;;5.47;;
6665;SDS011;3369;49.906;8.598;2023-07-08T01:07:00;6.45;;;5.32;;
6665;SDS011;3369;49.906;8.598;2023-07-08T01:09:32;7.00;;;5.68;;
6665;SDS011;3369;49.906;8.598;2023-07-08T01:12:02;7.00;;;5.90;;
6665;SDS011;3369;49.906;8.598;2023-07-08T01:14:33;6.65;;;6.00;;
6665;SDS011;3369;49.906;8.598;2023-07-08T01:17:00;6.15;;;5.53;;
6665;SDS011;3369;49.906;8.598;2023-07-08T01:19:26;6.43;;;5.30;;
6665;SDS011;3369;49.906;8.598;2023-07-08T01:22:02;6.15;;;5.38;;
6665;SDS011;3369;49.906;8.598;2023-07-08T01:24:30;7.03;;;5.43;;
6665;SDS011;3369;49.906;8.598;2023-07-08T01:26:58;6.13;;;5.43;;
6665;SDS011;3369;49.906;8.598;2023-07-08T01:29:26;5.88;;;5.22;;
6665;SDS011;3369;49.906;8.598;2023-07-08T01:31:54;6.25;;;5.10;;
6665;SDS011;3369;49.906;8.598;2023-07-08T01:34:21;6.43;;;5.60;;
6665;SDS011;3369;49.906;8.598;2023-07-08T01:36:51;5.80;;;5.13;;
6665;SDS011;3369;49.906;8.598;2023-07-08T01:39:19;6.07;;;5.18;;
6665;SDS011;3369;49.906;8.598;2023-07-08T01:41:46;6.60;;;5.43;;
6665;SDS011;3369;49.906;8.598;2023-07-08T01:44:31;6.18;;;5.57;;
6665;SDS011;3369;49.906;8.598;2023-07-08T01:47:03;6.30;;;5.53;;
6665;SDS011;3369;49.906;8.598;2023-07-08T01:49:40;6.22;;;4.93;;
6665;SDS011;3369;49.906;8.598;2023-07-08T01:52:08;6.13;;;5.50;;
6665;SDS011;3369;49.906;8.598;2023-07-08T01:54:35;6.20;;;5.45;;
6665;SDS011;3369;49.906;8.598;2023-07-08T01:57:01;7.22;;;6.03;;
6665;SDS011;3369;49.906;8.598;2023-07-08T01:59:27;6.10;;;5.25;;
6665;SDS011;3369;49.906;8.598;2023-07-08T02:01:53;5.88;;;5.30;;
6665;SDS011;3369;49.906;8.598;2023-07-08T02:04:23;5.68;;;4.93;;
6665;SDS011;3369;49.906;8.598;2023-07-08T02:06:59;5.88;;;5.25;;
6665;SDS011;3369;49.906;8.598;2023-07-08T02:09:25;5.95;;;5.05;;
6665;SDS011;3369;49.906;8.598;2023-07-08T02:11:52;5.93;;;5.30;;
6665;SDS011;3369;49.906;8.598;2023-07-08T02:14:18;5.97;;;5.40;;
6665;SDS011;3369;49.906;8.598;2023-07-08T02:16:43;6.03;;;5.43;;
6665;SDS011;3369;49.906;8.598;2023-07-08T02:19:12;7.43;;;5.95;;
6665;SDS011;3369;49.906;8.598;2023-07-08T02:21:38;6.57;;;4.97;;
6665;SDS011;3369;49.906;8.598;2023-07-08T02:24:04;6.97;;;6.28;;
6665;SDS011;3369;49.906;8.598;2023-07-08T02:26:30;6.65;;;5.85;;
6665;SDS011;3369;49.906;8.598;2023-07-08T02:28:57;6.20;;;5.22;;
6665;SDS011;3369;49.906;8.598;2023-07-08T02:31:23;6.45;;;5.32;;
6665;SDS011;3369;49.906;8.598;2023-07-08T02:33:52;6.22;;;5.43;;
6665;SDS011;3369;49.906;8.598;2023-07-08T02:36:18;7.55;;;5.70;;
6665;SDS011;3369;49.906;8.598;2023-07-08T02:38:44;6.82;;;5.95;;
6665;SDS011;3369;49.906;8.598;2023-07-08T02:41:10;6.25;;;5.50;;
6665;SDS011;3369;49.906;8.598;2023-07-08T02:43:36;6.85;;;5.80;;
6665;SDS011;3369;49.906;8.598;2023-07-08T02:46:03;6.63;;;5.78;;
6665;SDS011;3369;49.906;8.598;2023-07-08T02:48:28;6.18;;;5.43;;
6665;SDS011;3369;49.906;8.598;2023-07-08T02:51:01;6.90;;;5.70;;
6665;SDS011;3369;49.906;8.598;2023-07-08T02:53:29;5.93;;;5.35;;
6665;SDS011;3369;49.906;8.598;2023-07-08T02:55:54;7.50;;;5.57;;
6665;SDS011;3369;49.906;8.598;2023-07-08T02:58:20;6.90;;;5.50;;
6665;SDS011;3369;49.906;8.598;2023-07-08T03:00:51;6.00;;;4.97;;
6665;SDS011;3369;49.906;8.598;2023-07-08T03:03:17;5.72;;;4.90;;
6665;SDS011;3369;49.906;8.598;2023-07-08T03:05:42;6.25;;;5.55;;
6665;SDS011;3369;49.906;8.598;2023-07-08T03:08:08;6.35;;;5.25;;
6665;SDS011;3369;49.906;8.598;2023-07-08T03:10:34;6.65;;;5.35;;
6665;SDS011;3369;49.906;8.598;2023-07-08T03:12:59;6.22;;;5.10;;
6665;SDS011;3369;49.906;8.598;2023-07-08T03:15:25;6.38;;;5.47;;
6665;SDS011;3369;49.906;8.598;2023-07-08T03:17:50;6.45;;;4.90;;
6665;SDS011;3369;49.906;8.598;2023-07-08T03:20:18;6.57;;;5.40;;
6665;SDS011;3369;49.906;8.598;2023-07-08T03:22:44;6.60;;;5.43;;
6665;SDS011;3369;49.906;8.598;2023-07-08T03:25:10;6.25;;;5.65;;
6665;SDS011;3369;49.906;8.598;2023-07-08T03:27:35;5.65;;;5.05;;
6665;SDS011;3369;49.906;8.598;2023-07-08T03:30:01;6.75;;;5.60;;
6665;SDS011;3369;49.906;8.598;2023-07-08T03:32:26;6.05;;;5.18;;
6665;SDS011;3369;49.906;8.598;2023-07-08T03:34:52;6.03;;;5.25;;
6665;SDS011;3369;49.906;8.598;2023-07-08T03:37:18;6.25;;;5.65;;
6665;SDS011;3369;49.906;8.598;2023-07-08T03:39:44;7.35;;;6.00;;
6665;SDS011;3369;49.906;8.598;2023-07-08T03:42:10;7.50;;;6.28;;
6665;SDS011;3369;49.906;8.598;2023-07-08T03:44:35;7.25;;;6.18;;
6665;SDS011;3369;49.906;8.598;2023-07-08T03:47:01;6.60;;;5.83;;
6665;SDS011;3369;49.906;8.598;2023-07-08T03:49:26;6.18;;;5.57;;
6665;SDS011;3369;49.906;8.598;2023-07-08T03:51:53;6.43;;;5.63;;
6665;SDS011;3369;49.906;8.598;2023-07-08T03:54:19;7.75;;;5.95;;
6665;SDS011;3369;49.906;8.598;2023-07-08T03:56:46;6.90;;;6.20;;
6665;SDS011;3369;49.906;8.598;2023-07-08T03:59:11;6.45;;;5.80;;
6665;SDS011;3369;49.906;8.598;2023-07-08T04:01:37;6.53;;;5.30;;
6665;SDS011;3369;49.906;8.598;2023-07-08T04:04:06;7.25;;;5.80;;
6665;SDS011;3369;49.906;8.598;2023-07-08T04:06:36;6.35;;;5.30;;
6665;SDS011;3369;49.906;8.598;2023-07-08T04:09:01;7.23;;;5.77;;
6665;SDS011;3369;49.906;8.598;2023-07-08T04:11:27;6.90;;;5.63;;
6665;SDS011;3369;49.906;8.598;2023-07-08T04:13:52;6.95;;;5.70;;
6665;SDS011;3369;49.906;8.598;2023-07-08T04:18:49;7.35;;;5.55;;
6665;SDS011;3369;49.906;8.598;2023-07-08T04:21:18;7.75;;;6.18;;
6665;SDS011;3369;49.906;8.598;2023-07-08T04:23:44;7.40;;;5.88;;
6665;SDS011;3369;49.906;8.598;2023-07-08T04:26:10;6.80;;;5.63;;
6665;SDS011;3369;49.906;8.598;2023-07-08T04:28:36;7.30;;;5.70;;
6665;SDS011;3369;49.906;8.598;2023-07-08T04:31:02;8.60;;;6.63;;
6665;SDS011;3369;49.906;8.598;2023-07-08T04:33:29;7.00;;;5.85;;
6665;SDS011;3369;49.906;8.598;2023-07-08T04:35:55;6.85;;;5.53;;
6665;SDS011;3369;49.906;8.598;2023-07-08T04:38:22;8.80;;;6.40;;
6665;SDS011;3369;49.906;8.598;2023-07-08T04:40:49;7.65;;;6.10;;
6665;SDS011;3369;49.906;8.598;2023-07-08T04:43:17;9.63;;;5.65;;
6665;SDS011;3369;49.906;8.598;2023-07-08T04:45:45;7.65;;;5.90;;
6665;SDS011;3369;49.906;8.598;2023-07-08T04:48:15;8.00;;;6.15;;
6665;SDS011;3369;49.906;8.598;2023-07-08T04:50:44;6.78;;;5.65;;
6665;SDS011;3369;49.906;8.598;2023-07-08T04:53:13;7.80;;;6.28;;
6665;SDS011;3369;49.906;8.598;2023-07-08T04:55:41;7.35;;;6.03;;
6665;SDS011;3369;49.906;8.598;2023-07-08T04:58:09;7.07;;;6.03;;
6665;SDS011;3369;49.906;8.598;2023-07-08T05:00:35;6.13;;;5.50;;
6665;SDS011;3369;49.906;8.598;2023-07-08T05:03:00;6.85;;;5.65;;
6665;SDS011;3369;49.906;8.598;2023-07-08T05:05:26;5.47;;;4.90;;
6665;SDS011;3369;49.906;8.598;2023-07-08T05:07:52;6.20;;;5.55;;
6665;SDS011;3369;49.906;8.598;2023-07-08T05:10:18;5.45;;;4.80;;
6665;SDS011;3369;49.906;8.598;2023-07-08T05:12:45;5.55;;;4.95;;
6665;SDS011;3369;49.906;8.598;2023-07-08T05:15:11;5.78;;;4.70;;
6665;SDS011;3369;49.906;8.598;2023-07-08T05:17:37;4.95;;;4.45;;
6665;SDS011;3369;49.906;8.598;2023-07-08T05:20:08;6.68;;;4.68;;
6665;SDS011;3369;49.906;8.598;2023-07-08T05:22:36;4.28;;;3.88;;
6665;SDS011;3369;49.906;8.598;2023-07-08T05:25:02;5.72;;;5.22;;
6665;SDS011;3369;49.906;8.598;2023-07-08T05:27:28;5.47;;;4.97;;
6665;SDS011;3369;49.906;8.598;2023-07-08T05:29:54;6.93;;;5.75;;
6665;SDS011;3369;49.906;8.598;2023-07-08T05:32:20;6.03;;;5.38;;
6665;SDS011;3369;49.906;8.598;2023-07-08T05:34:45;7.47;;;5.82;;
6665;SDS011;3369;49.906;8.598;2023-07-08T05:37:11;7.65;;;6.32;;
6665;SDS011;3369;49.906;8.598;2023-07-08T05:39:38;6.80;;;5.70;;
6665;SDS011;3369;49.906;8.598;2023-07-08T05:42:03;7.07;;;6.07;;
6665;SDS011;3369;49.906;8.598;2023-07-08T05:44:29;6.25;;;5.45;;
6665;SDS011;3369;49.906;8.598;2023-07-08T05:46:55;6.18;;;5.20;;
6665;SDS011;3369;49.906;8.598;2023-07-08T05:49:21;5.82;;;5.22;;
6665;SDS011;3369;49.906;8.598;2023-07-08T05:51:47;5.70;;;5.10;;
6665;SDS011;3369;49.906;8.598;2023-07-08T05:54:12;7.72;;;5.53;;
6665;SDS011;3369;49.906;8.598;2023-07-08T05:56:39;6.18;;;5.43;;
6665;SDS011;3369;49.906;8.598;2023-07-08T05:59:05;6.63;;;5.68;;
6665;SDS011;3369;49.906;8.598;2023-07-08T06:01:30;5.72;;;5.10;;
6665;SDS011;3369;49.906;8.598;2023-07-08T06:03:56;6.00;;;5.40;;
6665;SDS011;3369;49.906;8.598;2023-07-08T06:06:26;8.15;;;5.68;;
6665;SDS011;3369;49.906;8.598;2023-07-08T06:08:52;8.38;;;5.50;;
6665;SDS011;3369;49.906;8.598;2023-07-08T06:11:18;5.72;;;4.93;;
6665;SDS011;3369;49.906;8.598;2023-07-08T06:13:44;6.15;;;5.45;;
6665;SDS011;3369;49.906;8.598;2023-07-08T06:16:09;5.68;;;5.07;;
6665;SDS011;3369;49.906;8.598;2023-07-08T06:18:35;5.80;;;4.80;;
6665;SDS011;3369;49.906;8.598;2023-07-08T06:21:01;7.78;;;5.13;;
6665;SDS011;3369;49.906;8.598;2023-07-08T06:23:27;5.25;;;4.75;;
6665;SDS011;3369;49.906;8.598;2023-07-08T06:25:53;5.20;;;4.70;;
6665;SDS011;3369;49.906;8.598;2023-07-08T06:28:19;4.68;;;4.28;;
6665;SDS011;3369;49.906;8.598;2023-07-08T06:30:45;5.15;;;4.63;;
6665;SDS011;3369;49.906;8.598;2023-07-08T06:33:12;4.45;;;4.05;;
6665;SDS011;3369;49.906;8.598;2023-07-08T06:35:38;5.35;;;4.80;;
6665;SDS011;3369;49.906;8.598;2023-07-08T06:38:04;5.72;;;4.50;;
6665;SDS011;3369;49.906;8.598;2023-07-08T06:40:31;9.77;;;5.57;;
6665;SDS011;3369;49.906;8.598;2023-07-08T06:42:56;7.72;;;5.03;;
6665;SDS011;3369;49.906;8.598;2023-07-08T06:45:22;6.53;;;5.22;;
6665;SDS011;3369;49.906;8.598;2023-07-08T06:47:48;6.93;;;5.18;;
6665;SDS011;3369;49.906;8.598;2023-07-08T06:50:13;6.32;;;5.00;;
6665;SDS011;3369;49.906;8.598;2023-07-08T06:52:39;5.75;;;5.03;;
6665;SDS011;3369;49.906;8.598;2023-07-08T06:55:06;5.60;;;5.03;;
6665;SDS011;3369;49.906;8.598;2023-07-08T06:57:33;5.10;;;4.60;;
6665;SDS011;3369;49.906;8.598;2023-07-08T06:59:59;5.55;;;4.60;;
6665;SDS011;3369;49.906;8.598;2023-07-08T07:02:26;5.85;;;4.85;;
6665;SDS011;3369;49.906;8.598;2023-07-08T07:04:52;5.80;;;4.90;;
6665;SDS011;3369;49.906;8.598;2023-07-08T07:07:18;5.30;;;4.65;;
6665;SDS011;3369;49.906;8.598;2023-07-08T07:09:43;5.22;;;4.70;;
6665;SDS011;3369;49.906;8.598;2023-07-08T07:12:09;5.90;;;4.72;;
6665;SDS011;3369;49.906;8.598;2023-07-08T07:14:35;5.65;;;5.10;;
6665;SDS011;3369;49.906;8.598;2023-07-08T07:17:00;48.50;;;17.17;;
6665;SDS011;3369;49.906;8.598;2023-07-08T07:19:26;29.33;;;13.48;;
6665;SDS011;3369;49.906;8.598;2023-07-08T07:21:52;22.05;;;10.93;;
6665;SDS011;3369;49.906;8.598;2023-07-08T07:24:18;18.15;;;10.10;;
6665;SDS011;3369;49.906;8.598;2023-07-08T07:26:44;14.07;;;9.10;;
6665;SDS011;3369;49.906;8.598;2023-07-08T07:29:10;10.90;;;7.95;;
6665;SDS011;3369;49.906;8.598;2023-07-08T07:31:35;10.15;;;7.32;;
6665;SDS011;3369;49.906;8.598;2023-07-08T07:34:01;10.30;;;7.15;;
6665;SDS011;3369;49.906;8.598;2023-07-08T07:36:28;10.40;;;7.18;;
6665;SDS011;3369;49.906;8.598;2023-07-08T07:38:54;7.38;;;5.63;;
6665;SDS011;3369;49.906;8.598;2023-07-08T07:41:20;8.57;;;6.03;;
6665;SDS011;3369;49.906;8.598;2023-07-08T07:43:45;6.60;;;5.07;;
6665;SDS011;3369;49.906;8.598;2023-07-08T07:46:11;6.20;;;5.32;;
6665;SDS011;3369;49.906;8.598;2023-07-08T07:48:37;5.85;;;4.63;;
6665;SDS011;3369;49.906;8.598;2023-07-08T07:51:04;5.60;;;5.00;;
6665;SDS011;3369;49.906;8.598;2023-07-08T07:53:30;5.72;;;4.80;;
6665;SDS011;3369;49.906;8.598;2023-07-08T07:55:59;4.40;;;4.00;;
6665;SDS011;3369;49.906;8.598;2023-07-08T07:58:27;5.57;;;5.05;;
6665;SDS011;3369;49.906;8.598;2023-07-08T08:00:53;5.13;;;4.63;;
6665;SDS011;3369;49.906;8.598;2023-07-08T08:03:19;7.50;;;4.40;;
6665;SDS011;3369;49.906;8.598;2023-07-08T08:05:45;6.88;;;5.05;;
6665;SDS011;3369;49.906;8.598;2023-07-08T08:08:11;5.97;;;5.15;;
6665;SDS011;3369;49.906;8.598;2023-07-08T08:10:37;7.28;;;5.03;;
6665;SDS011;3369;49.906;8.598;2023-07-08T08:13:03;6.18;;;5.25;;
6665;SDS011;3369;49.906;8.598;2023-07-08T08:15:29;6.50;;;5.80;;
6665;SDS011;3369;49.906;8.598;2023-07-08T08:17:54;5.65;;;4.97;;
6665;SDS011;3369;49.906;8.598;2023-07-08T08:20:21;5.65;;;5.13;;
6665;SDS011;3369;49.906;8.598;2023-07-08T08:22:49;6.07;;;5.47;;
6665;SDS011;3369;49.906;8.598;2023-07-08T08:25:15;6.32;;;5.72;;
6665;SDS011;3369;49.906;8.598;2023-07-08T08:27:42;5.88;;;5.28;;
6665;SDS011;3369;49.906;8.598;2023-07-08T08:30:08;5.28;;;4.78;;
6665;SDS011;3369;49.906;8.598;2023-07-08T08:32:35;5.22;;;4.70;;
6665;SDS011;3369;49.906;8.598;2023-07-08T08:35:01;5.28;;;4.78;;
6665;SDS011;3369;49.906;8.598;2023-07-08T08:37:26;5.45;;;4.93;;
6665;SDS011;3369;49.906;8.598;2023-07-08T08:39:52;5.63;;;5.13;;
6665;SDS011;3369;49.906;8.598;2023-07-08T08:45:04;5.13;;;4.57;;
6665;SDS011;3369;49.906;8.598;2023-07-08T08:52:42;6.15;;;5.55;;
6665;SDS011;3369;49.906;8.598;2023-07-08T08:55:12;5.22;;;4.72;;
6665;SDS011;3369;49.906;8.598;2023-07-08T09:00:16;5.07;;;4.60;;
6665;SDS011;3369;49.906;8.598;2023-07-08T09:02:53;6.40;;;5.80;;
6665;SDS011;3369;49.906;8.598;2023-07-08T09:05:26;6.10;;;5.50;;
6665;SDS011;3369;49.906;8.598;2023-07-08T09:10:44;7.00;;;6.30;;
6665;SDS011;3369;49.906;8.598;2023-07-08T09:13:21;5.95;;;5.28;;
6665;SDS011;3369;49.906;8.598;2023-07-08T09:15:57;8.35;;;6.25;;
6665;SDS011;3369;49.906;8.598;2023-07-08T09:18:33;7.28;;;6.47;;
6665;SDS011;3369;49.906;8.598;2023-07-08T09:21:13;7.40;;;6.10;;
6665;SDS011;3369;49.906;8.598;2023-07-08T09:23:44;7.47;;;6.00;;
6665;SDS011;3369;49.906;8.598;2023-07-08T09:26:16;7.57;;;6.43;;
6665;SDS011;3369;49.906;8.598;2023-07-08T09:28:45;7.22;;;5.93;;
6665;SDS011;3369;49.906;8.598;2023-07-08T09:34:11;6.13;;;5.55;;
6665;SDS011;3369;49.906;8.598;2023-07-08T09:36:42;8.07;;;6.20;;
6665;SDS011;3369;49.906;8.598;2023-07-08T09:39:11;8.70;;;6.68;;
6665;SDS011;3369;49.906;8.598;2023-07-08T09:41:39;7.32;;;5.97;;
6665;SDS011;3369;49.906;8.598;2023-07-08T09:46:43;8.57;;;6.57;;
6665;SDS011;3369;49.906;8.598;2023-07-08T09:49:23;7.35;;;6.25;;
6665;SDS011;3369;49.906;8.598;2023-07-08T09:51:55;9.98;;;6.70;;
6665;SDS011;3369;49.906;8.598;2023-07-08T09:54:22;7.50;;;6.03;;
6665;SDS011;3369;49.906;8.598;2023-07-08T09:56:54;7.70;;;5.68;;
6665;SDS011;3369;49.906;8.598;2023-07-08T09:59:23;6.00;;;5.40;;
6665;SDS011;3369;49.906;8.598;2023-07-08T10:02:02;9.00;;;5.80;;
6665;SDS011;3369;49.906;8.598;2023-07-08T10:04:45;7.90;;;5.28;;
6665;SDS011;3369;49.906;8.598;2023-07-08T10:07:12;7.25;;;6.03;;
6665;SDS011;3369;49.906;8.598;2023-07-08T10:09:42;7.57;;;5.63;;
6665;SDS011;3369;49.906;8.598;2023-07-08T10:12:08;7.93;;;5.68;;
6665;SDS011;3369;49.906;8.598;2023-07-08T10:14:39;6.78;;;4.72;;
6665;SDS011;3369;49.906;8.598;2023-07-08T10:17:16;6.10;;;5.38;;
6665;SDS011;3369;49.906;8.598;2023-07-08T10:19:43;7.65;;;5.13;;
6665;SDS011;3369;49.906;8.598;2023-07-08T10:27:53;6.68;;;4.97;;
6665;SDS011;3369;49.906;8.598;2023-07-08T10:30:40;7.07;;;5.30;;
6665;SDS011;3369;49.906;8.598;2023-07-08T10:41:45;7.63;;;5.05;;
6665;SDS011;3369;49.906;8.598;2023-07-08T10:44:21;7.93;;;4.78;;
6665;SDS011;3369;49.906;8.598;2023-07-08T11:03:16;5.75;;;4.88;;
6665;SDS011;3369;49.906;8.598;2023-07-08T11:05:52;8.10;;;5.03;;
6665;SDS011;3369;49.906;8.598;2023-07-08T11:08:44;4.97;;;3.95;;
6665;SDS011;3369;49.906;8.598;2023-07-08T11:14:18;6.97;;;4.65;;
6665;SDS011;3369;49.906;8.598;2023-07-08T11:19:46;5.85;;;4.68;;
6665;SDS011;3369;49.906;8.598;2023-07-08T11:22:37;5.90;;;4.57;;
6665;SDS011;3369;49.906;8.598;2023-07-08T11:25:16;7.95;;;4.55;;
6665;SDS011;3369;49.906;8.598;2023-07-08T11:27:43;6.07;;;4.78;;
6665;SDS011;3369;49.906;8.598;2023-07-08T11:30:19;5.25;;;4.75;;
6665;SDS011;3369;49.906;8.598;2023-07-08T11:32:47;5.25;;;4.25;;
6665;SDS011;3369;49.906;8.598;2023-07-08T11:35:24;7.10;;;4.78;;
6665;SDS011;3369;49.906;8.598;2023-07-08T11:38:01;6.60;;;4.85;;
6665;SDS011;3369;49.906;8.598;2023-07-08T11:40:28;7.13;;;4.53;;
6665;SDS011;3369;49.906;8.598;2023-07-08T11:43:00;6.68;;;4.57;;
6665;SDS011;3369;49.906;8.598;2023-07-08T11:45:31;5.68;;;4.53;;
6665;SDS011;3369;49.906;8.598;2023-07-08T11:48:11;5.45;;;4.68;;
6665;SDS011;3369;49.906;8.598;2023-07-08T11:50:41;5.30;;;4.80;;
6665;SDS011;3369;49.906;8.598;2023-07-08T11:53:09;7.25;;;4.97;;
6665;SDS011;3369;49.906;8.598;2023-07-08T11:55:37;6.75;;;4.60;;
6665;SDS011;3369;49.906;8.598;2023-07-08T11:58:13;6.43;;;4.65;;
6665;SDS011;3369;49.906;8.598;2023-07-08T12:01:23;6.32;;;4.70;;
6665;SDS011;3369;49.906;8.598;2023-07-08T12:03:50;4.60;;;4.10;;
6665;SDS011;3369;49.906;8.598;2023-07-08T12:08:52;5.00;;;4.50;;
6665;SDS011;3369;49.906;8.598;2023-07-08T12:11:31;7.30;;;5.30;;
6665;SDS011;3369;49.906;8.598;2023-07-08T12:13:58;4.80;;;3.92;;
6665;SDS011;3369;49.906;8.598;2023-07-08T12:16:26;5.70;;;4.53;;
6665;SDS011;3369;49.906;8.598;2023-07-08T12:18:54;5.30;;;4.50;;
6665;SDS011;3369;49.906;8.598;2023-07-08T12:21:22;4.93;;;4.20;;
6665;SDS011;3369;49.906;8.598;2023-07-08T12:23:48;7.90;;;4.40;;
6665;SDS011;3369;49.906;8.598;2023-07-08T12:26:15;7.45;;;4.60;;
6665;SDS011;3369;49.906;8.598;2023-07-08T12:28:41;6.85;;;4.60;;
6665;SDS011;3369;49.906;8.598;2023-07-08T12:31:15;5.78;;;4.68;;
6665;SDS011;3369;49.906;8.598;2023-07-08T12:33:44;4.47;;;3.97;;
6665;SDS011;3369;49.906;8.598;2023-07-08T12:36:10;6.05;;;4.57;;
6665;SDS011;3369;49.906;8.598;2023-07-08T12:38:43;5.72;;;4.47;;
6665;SDS011;3369;49.906;8.598;2023-07-08T12:41:16;4.75;;;4.25;;
6665;SDS011;3369;49.906;8.598;2023-07-08T12:43:45;9.73;;;4.55;;
6665;SDS011;3369;49.906;8.598;2023-07-08T12:46:12;4.93;;;3.92;;
6665;SDS011;3369;49.906;8.598;2023-07-08T12:48:40;5.85;;;4.32;;
6665;SDS011;3369;49.906;8.598;2023-07-08T12:51:09;6.25;;;4.07;;
6665;SDS011;3369;49.906;8.598;2023-07-08T12:53:38;5.45;;;4.20;;
6665;SDS011;3369;49.906;8.598;2023-07-08T12:56:03;4.60;;;3.92;;
6665;SDS011;3369;49.906;8.598;2023-07-08T12:58:31;4.85;;;3.92;;
6665;SDS011;3369;49.906;8.598;2023-07-08T13:01:01;4.53;;;4.05;;
6665;SDS011;3369;49.906;8.598;2023-07-08T13:03:30;5.35;;;3.85;;
6665;SDS011;3369;49.906;8.598;2023-07-08T13:05:59;5.22;;;3.72;;
6665;SDS011;3369;49.906;8.598;2023-07-08T13:08:27;9.15;;;4.95;;
6665;SDS011;3369;49.906;8.598;2023-07-08T13:10:58;5.18;;;4.43;;
6665;SDS011;3369;49.906;8.598;2023-07-08T13:13:26;5.45;;;4.22;;
6665;SDS011;3369;49.906;8.598;2023-07-08T13:15:54;6.90;;;4.13;;
6665;SDS011;3369;49.906;8.598;2023-07-08T13:20:55;5.03;;;3.97;;
6665;SDS011;3369;49.906;8.598;2023-07-08T13:23:22;6.00;;;4.10;;
6665;SDS011;3369;49.906;8.598;2023-07-08T13:25:49;5.70;;;4.25;;
6665;SDS011;3369;49.906;8.598;2023-07-08T13:28:27;5.03;;;3.70;;
6665;SDS011;3369;49.906;8.598;2023-07-08T13:30:56;5.93;;;4.25;;
6665;SDS011;3369;49.906;8.598;2023-07-08T13:33:28;6.22;;;3.70;;
6665;SDS011;3369;49.906;8.598;2023-07-08T13:35:55;4.13;;;3.72;;
6665;SDS011;3369;49.906;8.598;2023-07-08T13:38:23;6.10;;;3.85;;
6665;SDS011;3369;49.906;8.598;2023-07-08T13:40:53;5.28;;;4.00;;
6665;SDS011;3369;49.906;8.598;2023-07-08T13:43:24;6.47;;;4.00;;
6665;SDS011;3369;49.906;8.598;2023-07-08T13:45:51;5.00;;;3.30;;
6665;SDS011;3369;49.906;8.598;2023-07-08T13:51:19;4.13;;;3.70;;
6665;SDS011;3369;49.906;8.598;2023-07-08T13:53:47;4.00;;;3.60;;
6665;SDS011;3369;49.906;8.598;2023-07-08T13:56:19;7.43;;;4.60;;
6665;SDS011;3369;49.906;8.598;2023-07-08T13:58:49;6.25;;;4.18;;
6665;SDS011;3369;49.906;8.598;2023-07-08T14:01:17;4.63;;;3.95;;
6665;SDS011;3369;49.906;8.598;2023-07-08T14:03:43;4.70;;;3.75;;
6665;SDS011;3369;49.906;8.598;2023-07-08T14:06:16;3.63;;;3.10;;
6665;SDS011;3369;49.906;8.598;2023-07-08T14:08:43;6.80;;;4.03;;
6665;SDS011;3369;49.906;8.598;2023-07-08T14:11:09;4.50;;;3.85;;
6665;SDS011;3369;49.906;8.598;2023-07-08T14:13:34;5.85;;;3.97;;
6665;SDS011;3369;49.906;8.598;2023-07-08T14:16:00;6.82;;;3.88;;
6665;SDS011;3369;49.906;8.598;2023-07-08T14:18:29;4.80;;;3.80;;
6665;SDS011;3369;49.906;8.598;2023-07-08T14:20:55;6.07;;;3.70;;
6665;SDS011;3369;49.906;8.598;2023-07-08T14:23:20;6.15;;;3.95;;
6665;SDS011;3369;49.906;8.598;2023-07-08T14:25:46;9.10;;;4.40;;
6665;SDS011;3369;49.906;8.598;2023-07-08T14:28:12;6.32;;;4.25;;
6665;SDS011;3369;49.906;8.598;2023-07-08T14:30:44;8.02;;;3.75;;
6665;SDS011;3369;49.906;8.598;2023-07-08T14:33:12;5.97;;;4.00;;
6665;SDS011;3369;49.906;8.598;2023-07-08T14:35:38;5.45;;;3.80;;
6665;SDS011;3369;49.906;8.598;2023-07-08T14:38:09;6.32;;;3.97;;
6665;SDS011;3369;49.906;8.598;2023-07-08T14:40:37;6.30;;;3.63;;
6665;SDS011;3369;49.906;8.598;2023-07-08T14:43:06;5.47;;;3.70;;
6665;SDS011;3369;49.906;8.598;2023-07-08T14:45:41;5.13;;;3.90;;
6665;SDS011;3369;49.906;8.598;2023-07-08T14:48:12;4.13;;;3.72;;
6665;SDS011;3369;49.906;8.598;2023-07-08T14:50:38;4.90;;;4.10;;
6665;SDS011;3369;49.906;8.598;2023-07-08T14:53:04;6.45;;;3.95;;
6665;SDS011;3369;49.906;8.598;2023-07-08T14:55:30;6.70;;;4.07;;
6665;SDS011;3369;49.906;8.598;2023-07-08T14:57:56;4.72;;;3.58;;
6665;SDS011;3369;49.906;8.598;2023-07-08T15:00:22;6.00;;;3.53;;
6665;SDS011;3369;49.906;8.598;2023-07-08T15:02:48;4.15;;;3.35;;
6665;SDS011;3369;49.906;8.598;2023-07-08T15:05:20;4.07;;;3.67;;
6665;SDS011;3369;49.906;8.598;2023-07-08T15:07:53;7.32;;;3.92;;
6665;SDS011;3369;49.906;8.598;2023-07-08T15:10:23;5.18;;;3.58;;
6665;SDS011;3369;49.906;8.598;2023-07-08T15:12:50;6.53;;;3.80;;
6665;SDS011;3369;49.906;8.598;2023-07-08T15:15:16;7.53;;;3.90;;
6665;SDS011;3369;49.906;8.598;2023-07-08T15:17:49;4.80;;;3.47;;
6665;SDS011;3369;49.906;8.598;2023-07-08T15:20:16;6.22;;;3.90;;
6665;SDS011;3369;49.906;8.598;2023-07-08T15:22:42;5.40;;;4.10;;
6665;SDS011;3369;49.906;8.598;2023-07-08T15:25:12;8.27;;;4.15;;
6665;SDS011;3369;49.906;8.598;2023-07-08T15:27:42;4.38;;;3.92;;
6665;SDS011;3369;49.906;8.598;2023-07-08T15:30:18;5.10;;;3.95;;
6665;SDS011;3369;49.906;8.598;2023-07-08T15:32:46;6.50;;;4.07;;
6665;SDS011;3369;49.906;8.598;2023-07-08T15:35:16;4.68;;;3.97;;
6665;SDS011;3369;49.906;8.598;2023-07-08T15:37:44;4.18;;;3.38;;
6665;SDS011;3369;49.906;8.598;2023-07-08T15:40:14;5.60;;;3.65;;
6665;SDS011;3369;49.906;8.598;2023-07-08T15:42:41;5.60;;;4.10;;
6665;SDS011;3369;49.906;8.598;2023-07-08T15:45:18;7.80;;;4.10;;
6665;SDS011;3369;49.906;8.598;2023-07-08T15:47:50;5.32;;;4.10;;
6665;SDS011;3369;49.906;8.598;2023-07-08T15:50:17;6.70;;;4.10;;
6665;SDS011;3369;49.906;8.598;2023-07-08T15:52:44;5.35;;;3.88;;
6665;SDS011;3369;49.906;8.598;2023-07-08T15:55:11;6.07;;;3.67;;
6665;SDS011;3369;49.906;8.598;2023-07-08T15:57:59;6.28;;;3.72;;
6665;SDS011;3369;49.906;8.598;2023-07-08T16:00:27;4.50;;;3.53;;
6665;SDS011;3369;49.906;8.598;2023-07-08T16:02:56;4.32;;;3.40;;
6665;SDS011;3369;49.906;8.598;2023-07-08T16:05:24;4.40;;;3.35;;
6665;SDS011;3369;49.906;8.598;2023-07-08T16:07:53;7.07;;;3.85;;
6665;SDS011;3369;49.906;8.598;2023-07-08T16:10:20;4.28;;;3.88;;
6665;SDS011;3369;49.906;8.598;2023-07-08T16:12:49;4.05;;;3.58;;
6665;SDS011;3369;49.906;8.598;2023-07-08T16:15:22;4.03;;;3.45;;
6665;SDS011;3369;49.906;8.598;2023-07-08T16:17:56;4.65;;;3.45;;
6665;SDS011;3369;49.906;8.598;2023-07-08T16:20:24;4.22;;;3.25;;
6665;SDS011;3369;49.906;8.598;2023-07-08T16:22:52;4.95;;;3.47;;
6665;SDS011;3369;49.906;8.598;2023-07-08T16:25:19;4.53;;;3.70;;
6665;SDS011;3369;49.906;8.598;2023-07-08T16:27:50;3.97;;;3.33;;
6665;SDS011;3369;49.906;8.598;2023-07-08T16:30:17;5.30;;;3.50;;
6665;SDS011;3369;49.906;8.598;2023-07-08T16:32:44;6.20;;;3.55;;
6665;SDS011;3369;49.906;8.598;2023-07-08T16:35:12;7.35;;;4.18;;
6665;SDS011;3369;49.906;8.598;2023-07-08T16:37:45;3.83;;;3.50;;